Ana Sayfa
METAR-TAF:

METAR-TAF

Havaalanları :

Kaltag, Alaska, Amerika Birleşik Devletleri

Enlem: 64-19N, Boylam: 158-44W, yükseklik: 54 m

Güncel hava durumu gözlemi

Rapor saat 04:53 UTC de 57 dakika önce yapıldı.
Rüzgar kuzeybatıdan 7 kt
Sıcaklık 8°C
Nem 34%
Basınç 1009 hPa
Görüş mesafesi: 16.1 km
Açık gökyüzü

METAR: PAKV 270453Z AUTO 32007KT 10SM CLR 08/M07 A2980 RMK AO2 SLP095 T00781072 TSNO

Saat: 21:50 (05:50 UTC)


TAF: eksik

4.000'den fazla havaalanı için hava durumu gözlemleri ve tahminleri (METAR ve TAF raporları).

Kullanılabilir istasyonlar harita üzerinde sarı ve kırmızı noktalarla gösterilir.

İstasyonun adını görmek için fareyi noktanın üzerinde gezdirin.

Sonrasında hava gözlem ve tahminlerini görmek için tıklayın.

Haritayı değiştirmek için: yaklaştırmak için siyah artı işaretli yeşil düğmeye ve uzaklaştırmak için de eksi işaretli düğmeye hızla tıklayın; bitişik haritalar için yeşil okları kullanın.


METAR-TAF: